createdAt,value
2022-08-28T00:00:15.038Z,98.60
2022-08-28T00:01:15.027Z,98.50
2022-08-28T00:02:15.027Z,98.50
2022-08-28T00:03:15.449Z,98.60
2022-08-28T00:04:15.008Z,98.60
2022-08-28T00:05:14.988Z,98.60
2022-08-28T00:06:15.077Z,98.60
2022-08-28T00:07:15.053Z,98.60
2022-08-28T00:08:14.950Z,98.60
2022-08-28T00:09:15.016Z,98.60
2022-08-28T00:10:14.906Z,98.60
2022-08-28T00:11:15.009Z,98.60
2022-08-28T00:12:14.885Z,98.50
2022-08-28T00:13:14.893Z,98.50
2022-08-28T00:14:14.893Z,98.50
2022-08-28T00:15:14.874Z,98.70
2022-08-28T00:16:15.101Z,98.60
2022-08-28T00:17:14.834Z,98.50
2022-08-28T00:18:14.870Z,98.39
2022-08-28T00:19:14.823Z,98.39
2022-08-28T00:20:14.783Z,98.34
2022-08-28T00:21:14.839Z,98.24
2022-08-28T00:22:14.816Z,98.24
2022-08-28T00:23:14.864Z,98.24
2022-08-28T00:24:14.753Z,98.24
2022-08-28T00:25:14.774Z,98.24
2022-08-28T00:26:14.743Z,98.24
2022-08-28T00:27:14.703Z,98.34
2022-08-28T00:28:23.625Z,98.34
2022-08-28T00:29:15.671Z,98.44
2022-08-28T00:30:14.682Z,98.34
2022-08-28T00:31:14.719Z,98.44
2022-08-28T00:32:14.667Z,98.44
2022-08-28T00:33:14.785Z,98.34
2022-08-28T00:34:14.624Z,98.24
2022-08-28T00:35:14.589Z,98.14
2022-08-28T00:36:14.660Z,98.14
2022-08-28T00:37:14.575Z,98.14
2022-08-28T00:38:14.778Z,98.24
2022-08-28T00:39:14.580Z,98.24
2022-08-28T00:40:14.595Z,98.24
2022-08-28T00:41:15.131Z,98.14
2022-08-28T00:42:14.539Z,98.14
2022-08-28T00:43:14.538Z,98.04
2022-08-28T00:44:14.500Z,98.09
2022-08-28T00:45:14.480Z,98.09
2022-08-28T00:46:14.533Z,98.19
2022-08-28T00:47:14.486Z,98.19
2022-08-28T00:48:14.599Z,98.19
2022-08-28T00:49:14.422Z,98.19
2022-08-28T00:50:14.426Z,98.09
2022-08-28T00:51:14.424Z,98.09
2022-08-28T00:52:14.374Z,97.99
2022-08-28T00:53:14.415Z,98.09
2022-08-28T00:54:14.396Z,97.99
2022-08-28T00:55:14.426Z,97.99
2022-08-28T00:56:14.356Z,97.89
2022-08-28T00:57:14.316Z,97.78
2022-08-28T00:58:14.649Z,97.69
2022-08-28T00:59:14.284Z,97.58
2022-08-28T01:00:14.275Z,97.58
2022-08-28T01:01:14.338Z,97.38
2022-08-28T01:02:14.254Z,97.49
2022-08-28T01:03:14.280Z,97.63
2022-08-28T01:04:14.223Z,97.53
2022-08-28T01:05:14.244Z,97.53
2022-08-28T01:06:14.278Z,97.53
2022-08-28T01:07:14.183Z,97.53
2022-08-28T01:08:14.468Z,97.53
2022-08-28T01:09:14.161Z,97.53
2022-08-28T01:10:15.282Z,97.53
2022-08-28T01:11:14.132Z,97.43
2022-08-28T01:12:14.182Z,97.53
2022-08-28T01:13:14.196Z,97.43
2022-08-28T01:14:14.180Z,97.33
2022-08-28T01:15:14.173Z,97.33
2022-08-28T01:16:14.303Z,97.23
2022-08-28T01:17:14.108Z,97.23
2022-08-28T01:18:14.305Z,97.13
2022-08-28T01:19:14.071Z,97.13
2022-08-28T01:20:14.049Z,97.13
2022-08-28T01:21:16.853Z,97.13
2022-08-28T01:22:15.010Z,97.13
2022-08-28T01:23:14.005Z,97.23
2022-08-28T01:24:13.991Z,97.38
2022-08-28T01:25:14.003Z,97.23
2022-08-28T01:26:14.014Z,97.27
2022-08-28T01:27:13.977Z,97.17
2022-08-28T01:28:14.045Z,97.07
2022-08-28T01:29:13.941Z,97.17
2022-08-28T01:30:13.930Z,97.07
2022-08-28T01:31:13.946Z,96.97
2022-08-28T01:32:13.946Z,96.87
2022-08-28T01:33:13.859Z,96.77
2022-08-28T01:34:13.886Z,96.87
2022-08-28T01:35:13.863Z,96.87
2022-08-28T01:36:13.891Z,96.67
2022-08-28T01:37:13.833Z,96.67
2022-08-28T01:38:14.307Z,96.67
2022-08-28T01:39:14.837Z,96.77
2022-08-28T01:40:13.845Z,96.77
2022-08-28T01:41:13.800Z,96.77
2022-08-28T01:42:13.767Z,96.77
2022-08-28T01:43:13.744Z,96.77
2022-08-28T01:44:13.764Z,96.77
2022-08-28T01:45:13.750Z,96.67
2022-08-28T01:46:13.754Z,96.67
2022-08-28T01:47:13.735Z,96.56
2022-08-28T01:48:13.940Z,96.67
2022-08-28T01:49:13.665Z,96.56
2022-08-28T01:50:13.673Z,96.47
2022-08-28T01:51:13.643Z,96.47
2022-08-28T01:52:13.623Z,96.47
2022-08-28T01:53:13.633Z,96.36
2022-08-28T01:54:13.614Z,96.47
2022-08-28T01:55:13.580Z,96.67
2022-08-28T01:56:13.581Z,96.71
2022-08-28T01:57:13.622Z,96.71
2022-08-28T01:58:13.810Z,96.81
2022-08-28T01:59:13.521Z,96.81
2022-08-28T02:00:13.512Z,96.81
2022-08-28T02:01:13.534Z,96.92
2022-08-28T02:02:13.510Z,96.92
2022-08-28T02:03:13.514Z,96.92
2022-08-28T02:04:13.613Z,96.92
2022-08-28T02:05:13.553Z,96.81
2022-08-28T02:06:13.478Z,96.92
2022-08-28T02:07:13.539Z,97.02
2022-08-28T02:08:13.690Z,97.02
2022-08-28T02:09:14.982Z,97.12
2022-08-28T02:10:13.439Z,97.12
2022-08-28T02:11:13.471Z,97.12
2022-08-28T02:12:13.399Z,97.12
2022-08-28T02:13:13.431Z,97.12
2022-08-28T02:14:13.448Z,97.32
2022-08-28T02:15:13.438Z,97.42
2022-08-28T02:16:13.442Z,97.42
2022-08-28T02:17:13.338Z,97.32
2022-08-28T02:18:13.537Z,97.32
2022-08-28T02:19:13.317Z,97.32
2022-08-28T02:20:13.403Z,97.22
2022-08-28T02:21:13.275Z,97.22
2022-08-28T02:22:13.270Z,97.22
2022-08-28T02:23:13.286Z,97.22
2022-08-28T02:24:13.379Z,97.22
2022-08-28T02:25:13.242Z,97.22
2022-08-28T02:26:13.306Z,97.22
2022-08-28T02:27:13.214Z,97.22
2022-08-28T02:28:13.438Z,97.22
2022-08-28T02:29:13.180Z,97.22
2022-08-28T02:30:13.138Z,97.32
2022-08-28T02:31:13.222Z,97.32
2022-08-28T02:32:13.154Z,97.36
2022-08-28T02:33:13.213Z,97.32
2022-08-28T02:34:13.181Z,97.42
2022-08-28T02:35:13.222Z,97.42
2022-08-28T02:36:13.113Z,97.52
2022-08-28T02:37:13.104Z,97.52
2022-08-28T02:38:13.179Z,97.62
2022-08-28T02:39:13.055Z,97.62
2022-08-28T02:40:13.082Z,97.72
2022-08-28T02:41:13.075Z,97.72
2022-08-28T02:42:13.082Z,97.82
2022-08-28T02:43:13.036Z,97.82
2022-08-28T02:44:13.095Z,97.92
2022-08-28T02:45:12.980Z,98.02
2022-08-28T02:46:13.090Z,97.92
2022-08-28T02:47:12.970Z,98.02
2022-08-28T02:48:17.239Z,98.02
2022-08-28T02:49:12.960Z,97.92
2022-08-28T02:50:12.936Z,98.22
2022-08-28T02:51:12.970Z,98.33
2022-08-28T02:52:12.889Z,98.43
2022-08-28T02:53:12.891Z,98.33
2022-08-28T02:54:12.868Z,98.33
2022-08-28T02:55:12.885Z,98.33
2022-08-28T02:56:12.846Z,98.43
2022-08-28T02:57:12.810Z,98.43
2022-08-28T02:58:12.973Z,98.43
2022-08-28T02:59:12.868Z,98.43
2022-08-28T03:00:12.820Z,98.22
2022-08-28T03:01:12.804Z,98.13
2022-08-28T03:02:12.822Z,98.22
2022-08-28T03:03:12.817Z,98.33
2022-08-28T03:04:12.736Z,98.43
2022-08-28T03:05:12.726Z,98.33
2022-08-28T03:06:12.797Z,98.33
2022-08-28T03:07:12.735Z,98.33
2022-08-28T03:08:12.959Z,98.43
2022-08-28T03:09:12.766Z,98.53
2022-08-28T03:10:12.714Z,98.53
2022-08-28T03:11:12.657Z,98.63
2022-08-28T03:12:12.695Z,98.63
2022-08-28T03:13:26.528Z,98.53
2022-08-28T03:14:13.624Z,98.53
2022-08-28T03:15:12.656Z,98.53
2022-08-28T03:16:12.686Z,98.53
2022-08-28T03:17:12.669Z,98.53
2022-08-28T03:18:12.801Z,98.53
2022-08-28T03:19:12.573Z,98.53
2022-08-28T03:20:12.552Z,98.53
2022-08-28T03:21:12.581Z,98.53
2022-08-28T03:22:12.542Z,98.53
2022-08-28T03:23:12.523Z,98.53
2022-08-28T03:24:15.244Z,98.63
2022-08-28T03:25:12.492Z,98.53
2022-08-28T03:26:12.603Z,98.43
2022-08-28T03:27:12.454Z,98.53
2022-08-28T03:28:12.624Z,98.53
2022-08-28T03:29:12.484Z,98.53
2022-08-28T03:30:12.390Z,98.53
2022-08-28T03:31:12.534Z,98.53
2022-08-28T03:32:12.380Z,98.43
2022-08-28T03:33:12.388Z,98.53
2022-08-28T03:34:12.360Z,98.53
2022-08-28T03:35:12.368Z,98.53
2022-08-28T03:36:12.394Z,98.53
2022-08-28T03:37:12.369Z,98.53
2022-08-28T03:38:12.515Z,98.53
2022-08-28T03:39:12.303Z,98.53
2022-08-28T03:40:12.406Z,98.43
2022-08-28T03:41:12.287Z,98.43
2022-08-28T03:42:12.263Z,98.43
2022-08-28T03:43:12.241Z,98.43
2022-08-28T03:44:12.293Z,98.53
2022-08-28T03:45:12.228Z,98.43
2022-08-28T03:46:12.266Z,98.43
2022-08-28T03:47:12.243Z,98.53
2022-08-28T03:48:12.365Z,98.43
2022-08-28T03:49:12.212Z,98.43
2022-08-28T03:50:12.241Z,98.43
2022-08-28T03:51:12.156Z,98.43
2022-08-28T03:52:12.160Z,98.43
2022-08-28T03:53:12.109Z,98.33
2022-08-28T03:54:12.126Z,98.43
2022-08-28T03:55:12.179Z,98.63
2022-08-28T03:56:12.091Z,98.63
2022-08-28T03:57:12.074Z,98.63
2022-08-28T03:58:19.081Z,98.63
2022-08-28T03:59:13.027Z,98.63
2022-08-28T04:00:12.027Z,98.73
2022-08-28T04:01:12.109Z,98.93
2022-08-28T04:02:12.062Z,98.83
2022-08-28T04:03:11.968Z,98.83
2022-08-28T04:04:12.030Z,98.83
2022-08-28T04:05:11.974Z,98.73
2022-08-28T04:06:11.963Z,98.73
2022-08-28T04:07:11.935Z,98.73
2022-08-28T04:08:12.030Z,98.73
2022-08-28T04:09:11.986Z,98.73
2022-08-28T04:10:11.948Z,98.83
2022-08-28T04:11:11.915Z,98.83
2022-08-28T04:12:11.940Z,98.83
2022-08-28T04:13:11.872Z,98.83
2022-08-28T04:14:11.992Z,98.83
2022-08-28T04:15:11.854Z,98.83
2022-08-28T04:16:11.987Z,98.83
2022-08-28T04:17:11.896Z,98.73
2022-08-28T04:18:11.906Z,98.73
2022-08-28T04:19:11.853Z,98.73
2022-08-28T04:20:11.772Z,98.73
2022-08-28T04:21:11.756Z,98.63
2022-08-28T04:22:11.833Z,98.63
2022-08-28T04:23:11.781Z,98.63
2022-08-28T04:24:11.691Z,98.63
2022-08-28T04:25:11.711Z,98.63
2022-08-28T04:26:11.691Z,98.63
2022-08-28T04:27:11.671Z,98.63
2022-08-28T04:28:11.875Z,98.63
2022-08-28T04:29:11.756Z,98.63
2022-08-28T04:30:11.659Z,98.73
2022-08-28T04:31:11.641Z,98.73
2022-08-28T04:32:11.683Z,98.73
2022-08-28T04:33:11.610Z,98.73
2022-08-28T04:34:11.621Z,98.73
2022-08-28T04:35:11.568Z,98.73
2022-08-28T04:36:11.589Z,98.73
2022-08-28T04:37:11.539Z,98.63
2022-08-28T04:38:11.549Z,98.63
2022-08-28T04:39:11.525Z,98.63
2022-08-28T04:40:11.608Z,98.63
2022-08-28T04:41:11.532Z,98.63
2022-08-28T04:42:11.493Z,98.63
2022-08-28T04:43:11.504Z,98.63
2022-08-28T04:44:11.427Z,98.63
2022-08-28T04:45:11.435Z,98.63
2022-08-28T04:46:11.516Z,98.63
2022-08-28T04:47:11.579Z,98.63
2022-08-28T04:48:13.837Z,98.63
2022-08-28T04:49:11.475Z,98.63
2022-08-28T04:50:11.404Z,98.73
2022-08-28T04:51:11.345Z,98.63
2022-08-28T04:52:11.406Z,98.63
2022-08-28T04:53:11.335Z,98.63
2022-08-28T04:54:11.364Z,98.63
2022-08-28T04:55:11.401Z,98.63
2022-08-28T04:56:11.274Z,98.73
2022-08-28T04:57:11.284Z,98.83
2022-08-28T04:58:11.420Z,98.73
2022-08-28T04:59:11.284Z,98.83
2022-08-28T05:00:11.249Z,98.83
2022-08-28T05:01:11.403Z,98.93
2022-08-28T05:02:11.274Z,99.04
2022-08-28T05:03:11.214Z,99.04
2022-08-28T05:04:11.211Z,99.04
2022-08-28T05:05:11.191Z,98.93
2022-08-28T05:06:11.153Z,98.73
2022-08-28T05:07:11.192Z,98.73
2022-08-28T05:08:11.155Z,98.63
2022-08-28T05:09:11.172Z,98.53
2022-08-28T05:10:11.168Z,98.43
2022-08-28T05:11:11.149Z,98.43
2022-08-28T05:12:11.159Z,98.53
2022-08-28T05:13:11.140Z,98.63
2022-08-28T05:14:15.421Z,98.63
2022-08-28T05:15:12.038Z,98.63
2022-08-28T05:16:11.110Z,98.48
2022-08-28T05:17:11.059Z,98.48
2022-08-28T05:18:11.240Z,98.48
2022-08-28T05:19:11.011Z,98.22
2022-08-28T05:20:11.036Z,98.02
2022-08-28T05:21:14.366Z,97.72
2022-08-28T05:22:10.998Z,97.72
2022-08-28T05:23:10.967Z,97.42
2022-08-28T05:24:10.931Z,97.32
2022-08-28T05:25:10.944Z,97.52
2022-08-28T05:26:10.957Z,97.52
2022-08-28T05:27:10.990Z,97.52
2022-08-28T05:28:11.804Z,97.62
2022-08-28T05:29:10.866Z,97.72
2022-08-28T05:30:10.863Z,97.82
2022-08-28T05:31:10.940Z,98.02
2022-08-28T05:32:10.875Z,98.13
2022-08-28T05:33:10.823Z,98.13
2022-08-28T05:34:10.806Z,98.18
2022-08-28T05:35:10.863Z,98.18
2022-08-28T05:36:10.785Z,98.08
2022-08-28T05:37:10.824Z,98.28
2022-08-28T05:38:10.767Z,98.28
2022-08-28T05:39:10.838Z,98.28
2022-08-28T05:40:10.759Z,98.28
2022-08-28T05:41:10.748Z,98.38
2022-08-28T05:42:10.757Z,98.38
2022-08-28T05:43:10.695Z,98.38
2022-08-28T05:44:10.740Z,98.28
2022-08-28T05:45:10.674Z,98.18
2022-08-28T05:46:10.767Z,98.08
2022-08-28T05:47:10.675Z,97.98
2022-08-28T05:48:10.677Z,97.78
2022-08-28T05:49:10.687Z,97.67
2022-08-28T05:50:10.605Z,97.67
2022-08-28T05:51:10.623Z,97.38
2022-08-28T05:52:10.651Z,96.87
2022-08-28T05:53:10.632Z,96.47
2022-08-28T05:54:10.569Z,96.36
2022-08-28T05:55:10.548Z,96.47
2022-08-28T05:56:10.590Z,96.47
2022-08-28T05:57:10.594Z,96.67
2022-08-28T05:58:10.519Z,96.56
2022-08-28T05:59:10.490Z,96.56
2022-08-28T06:00:10.478Z,96.56
2022-08-28T06:01:10.451Z,96.56
2022-08-28T06:02:10.560Z,96.26
2022-08-28T06:03:10.468Z,96.16
2022-08-28T06:04:10.512Z,96.06
2022-08-28T06:05:12.621Z,95.86
2022-08-28T06:06:10.444Z,95.96
2022-08-28T06:07:10.408Z,96.06
2022-08-28T06:08:10.453Z,96.16
2022-08-28T06:09:10.445Z,96.47
2022-08-28T06:10:10.586Z,96.47
2022-08-28T06:11:10.368Z,96.06
2022-08-28T06:12:10.377Z,95.66
2022-08-28T06:13:10.533Z,95.66
2022-08-28T06:14:10.359Z,95.56
2022-08-28T06:15:10.335Z,95.66
2022-08-28T06:16:10.351Z,95.86
2022-08-28T06:17:10.307Z,95.76
2022-08-28T06:18:10.275Z,95.66
2022-08-28T06:19:10.265Z,95.56
2022-08-28T06:20:10.276Z,95.76
2022-08-28T06:21:10.218Z,95.86
2022-08-28T06:22:10.324Z,95.06
2022-08-28T06:23:10.224Z,94.85
2022-08-28T06:24:10.217Z,95.15
2022-08-28T06:25:10.198Z,95.46
2022-08-28T06:26:10.157Z,95.56
2022-08-28T06:27:10.183Z,95.92
2022-08-28T06:28:10.153Z,96.12
2022-08-28T06:29:10.113Z,96.22
2022-08-28T06:30:10.332Z,96.42
2022-08-28T06:31:24.767Z,96.42
2022-08-28T06:32:11.170Z,96.42
2022-08-28T06:33:10.102Z,96.52
2022-08-28T06:34:10.140Z,96.72
2022-08-28T06:35:10.071Z,97.23
2022-08-28T06:36:10.014Z,97.23
2022-08-28T06:37:10.011Z,97.23
2022-08-28T06:38:10.205Z,97.33
2022-08-28T06:39:09.990Z,97.38
2022-08-28T06:40:10.091Z,97.38
2022-08-28T06:41:09.950Z,97.08
2022-08-28T06:42:10.041Z,96.37
2022-08-28T06:43:09.971Z,96.17
2022-08-28T06:44:09.930Z,96.28
2022-08-28T06:45:09.983Z,96.37
2022-08-28T06:46:09.994Z,96.28
2022-08-28T06:47:09.929Z,95.47
2022-08-28T06:48:09.876Z,95.07
2022-08-28T06:49:09.862Z,95.17
2022-08-28T06:50:09.869Z,95.67
2022-08-28T06:51:09.830Z,96.08
2022-08-28T06:52:09.958Z,96.28
2022-08-28T06:53:09.820Z,96.37
2022-08-28T06:54:09.828Z,96.23
2022-08-28T06:55:09.797Z,96.03
2022-08-28T06:56:09.837Z,95.27
2022-08-28T06:57:09.748Z,94.87
2022-08-28T06:58:09.797Z,94.32
2022-08-28T06:59:09.788Z,94.01
2022-08-28T07:00:09.975Z,94.01
2022-08-28T07:01:09.736Z,94.32
2022-08-28T07:02:09.856Z,94.62
2022-08-28T07:03:09.842Z,93.81
2022-08-28T07:04:09.685Z,93.41
2022-08-28T07:05:09.676Z,94.12
2022-08-28T07:06:09.665Z,94.82
2022-08-28T07:07:09.654Z,95.02
2022-08-28T07:08:10.644Z,93.91
2022-08-28T07:09:09.656Z,93.81
2022-08-28T07:10:09.615Z,93.91
2022-08-28T07:11:09.607Z,94.32
2022-08-28T07:12:09.594Z,94.42
2022-08-28T07:13:09.724Z,94.72
2022-08-28T07:14:09.574Z,94.72
2022-08-28T07:15:09.574Z,94.78
2022-08-28T07:16:09.589Z,95.07
2022-08-28T07:17:09.583Z,95.18
2022-08-28T07:18:09.492Z,95.38
2022-08-28T07:19:10.014Z,95.38
2022-08-28T07:20:09.502Z,95.48
2022-08-28T07:21:12.496Z,95.68
2022-08-28T07:22:09.439Z,95.58
2022-08-28T07:23:09.480Z,95.68
2022-08-28T07:24:09.448Z,95.58
2022-08-28T07:25:09.441Z,95.58
2022-08-28T07:26:09.437Z,95.58
2022-08-28T07:27:09.381Z,95.38
2022-08-28T07:28:09.395Z,95.28
2022-08-28T07:29:10.778Z,93.66
2022-08-28T07:30:09.393Z,91.96
2022-08-28T07:31:09.413Z,91.55
2022-08-28T07:32:09.360Z,91.75
2022-08-28T07:33:09.461Z,91.96
2022-08-28T07:34:09.300Z,92.06
2022-08-28T07:35:09.319Z,92.56
2022-08-28T07:36:09.289Z,93.07
2022-08-28T07:37:15.107Z,93.37
2022-08-28T07:38:10.280Z,93.52
2022-08-28T07:39:09.290Z,93.82
2022-08-28T07:40:09.237Z,94.13
2022-08-28T07:41:09.243Z,94.13
2022-08-28T07:42:09.179Z,93.42
2022-08-28T07:43:09.182Z,92.52
2022-08-28T07:44:09.178Z,91.91
2022-08-28T07:45:09.337Z,91.91
2022-08-28T07:46:09.218Z,92.32
2022-08-28T07:47:09.123Z,93.52
2022-08-28T07:48:11.527Z,93.38
2022-08-28T07:49:09.109Z,93.08
2022-08-28T07:50:09.159Z,93.28
2022-08-28T07:51:09.125Z,93.68
2022-08-28T07:52:09.093Z,93.98
2022-08-28T07:53:09.147Z,94.38
2022-08-28T07:54:15.491Z,93.38
2022-08-28T07:55:10.292Z,91.47
2022-08-28T07:56:09.039Z,91.97
2022-08-28T07:57:09.131Z,93.78
2022-08-28T07:58:09.035Z,93.98
2022-08-28T07:59:08.972Z,92.37
2022-08-28T08:00:08.992Z,92.97
2022-08-28T08:01:09.017Z,93.08
2022-08-28T08:02:09.099Z,90.26
2022-08-28T08:03:09.001Z,90.06
2022-08-28T08:04:08.923Z,91.37
2022-08-28T08:05:08.946Z,92.37
2022-08-28T08:06:08.901Z,89.46
2022-08-28T08:07:08.983Z,89.56
2022-08-28T08:08:08.890Z,90.66
2022-08-28T08:09:08.883Z,92.27
2022-08-28T08:10:08.911Z,92.83
2022-08-28T08:11:11.224Z,91.83
2022-08-28T08:12:10.292Z,88.75
2022-08-28T08:13:08.979Z,90.46
2022-08-28T08:14:08.817Z,91.63
2022-08-28T08:15:08.839Z,92.33
2022-08-28T08:16:08.872Z,90.22
2022-08-28T08:17:08.815Z,89.51
2022-08-28T08:18:08.906Z,89.01
2022-08-28T08:19:08.846Z,89.01
2022-08-28T08:20:08.770Z,89.51
2022-08-28T08:21:08.774Z,88.31
2022-08-28T08:22:08.749Z,88.91
2022-08-28T08:23:08.889Z,89.11
2022-08-28T08:24:08.659Z,89.11
2022-08-28T08:25:08.679Z,87.10
2022-08-28T08:26:08.674Z,87.04
2022-08-28T08:27:08.678Z,87.04
2022-08-28T08:28:08.670Z,87.95
2022-08-28T08:29:08.638Z,87.85
2022-08-28T08:30:08.598Z,88.55
2022-08-28T08:31:08.626Z,89.15
2022-08-28T08:32:08.587Z,89.06
2022-08-28T08:33:08.632Z,88.45
2022-08-28T08:34:08.518Z,87.85
2022-08-28T08:35:08.498Z,88.15
2022-08-28T08:36:08.514Z,89.42
2022-08-28T08:37:08.490Z,89.01
2022-08-28T08:38:08.556Z,88.81
2022-08-28T08:39:09.495Z,88.11
2022-08-28T08:40:10.733Z,88.11
2022-08-28T08:41:08.458Z,88.71
2022-08-28T08:42:08.486Z,88.11
2022-08-28T08:43:12.102Z,87.91
2022-08-28T08:44:08.467Z,87.41
2022-08-28T08:45:08.444Z,88.21
2022-08-28T08:46:08.396Z,88.81
2022-08-28T08:47:13.288Z,89.01
2022-08-28T08:48:09.459Z,89.17
2022-08-28T08:49:08.314Z,90.08
2022-08-28T08:50:08.358Z,89.47
2022-08-28T08:51:08.314Z,88.97
2022-08-28T08:52:08.294Z,89.67
2022-08-28T08:53:08.282Z,90.58
2022-08-28T08:54:08.253Z,91.14
2022-08-28T08:55:08.241Z,91.74
2022-08-28T08:56:08.924Z,91.94
2022-08-28T08:57:08.227Z,91.84
2022-08-28T08:58:08.264Z,91.03
2022-08-28T08:59:08.240Z,87.52
2022-08-28T09:00:11.213Z,87.32
2022-08-28T09:01:09.204Z,87.82
2022-08-28T09:02:08.156Z,88.32
2022-08-28T09:03:08.228Z,89.03
2022-08-28T09:04:08.151Z,88.83
2022-08-28T09:05:08.123Z,87.87
2022-08-28T09:06:08.151Z,87.06
2022-08-28T09:07:08.132Z,86.16
2022-08-28T09:08:08.082Z,86.76
2022-08-28T09:09:08.072Z,86.96
2022-08-28T09:10:08.079Z,87.06
2022-08-28T09:11:08.049Z,87.37
2022-08-28T09:12:08.043Z,87.16
2022-08-28T09:13:08.009Z,87.46
2022-08-28T09:14:08.004Z,88.97
2022-08-28T09:15:08.011Z,89.43
2022-08-28T09:16:08.073Z,89.13
2022-08-28T09:17:08.017Z,90.33
2022-08-28T09:18:08.049Z,89.13
2022-08-28T09:19:07.964Z,86.32
2022-08-28T09:20:07.939Z,86.42
2022-08-28T09:21:07.988Z,87.62
2022-08-28T09:22:08.006Z,88.93
2022-08-28T09:23:13.161Z,89.33
2022-08-28T09:24:10.889Z,90.29
2022-08-28T09:25:07.867Z,89.59
2022-08-28T09:26:07.877Z,86.92
2022-08-28T09:27:12.301Z,86.02
2022-08-28T09:28:08.833Z,85.82
2022-08-28T09:29:07.835Z,85.88
2022-08-28T09:30:08.391Z,87.98
2022-08-28T09:31:07.828Z,87.58
2022-08-28T09:32:07.776Z,86.68
2022-08-28T09:33:07.768Z,86.78
2022-08-28T09:34:07.783Z,85.92
2022-08-28T09:35:07.737Z,85.82
2022-08-28T09:36:07.726Z,85.88
2022-08-28T09:37:07.716Z,86.28
2022-08-28T09:38:07.728Z,86.58
2022-08-28T09:39:07.702Z,89.18
2022-08-28T09:40:07.788Z,88.09
2022-08-28T09:41:07.676Z,88.09
2022-08-28T09:42:07.646Z,88.64
2022-08-28T09:43:07.645Z,89.45
2022-08-28T09:44:07.625Z,88.24
2022-08-28T09:45:09.518Z,86.54
2022-08-28T09:46:07.631Z,87.74
2022-08-28T09:47:07.594Z,85.13
2022-08-28T09:48:07.614Z,83.83
2022-08-28T09:49:07.554Z,84.03
2022-08-28T09:50:07.584Z,85.44
2022-08-28T09:51:07.599Z,85.49
2022-08-28T09:52:07.539Z,84.69
2022-08-28T09:53:07.623Z,85.60
2022-08-28T09:54:07.533Z,85.80
2022-08-28T09:55:07.514Z,84.89
2022-08-28T09:56:07.472Z,86.30
2022-08-28T09:57:07.523Z,86.10
2022-08-28T09:58:07.534Z,86.66
2022-08-28T09:59:07.526Z,89.26
2022-08-28T10:00:07.432Z,87.96
2022-08-28T10:01:07.403Z,85.55
2022-08-28T10:02:07.434Z,86.05
2022-08-28T10:03:07.802Z,83.71
2022-08-28T10:04:07.438Z,86.71
2022-08-28T10:05:07.696Z,88.62
2022-08-28T10:06:07.351Z,84.81
2022-08-28T10:07:07.320Z,86.77
2022-08-28T10:08:07.311Z,86.27
2022-08-28T10:09:07.301Z,87.23
2022-08-28T10:10:07.533Z,86.03
2022-08-28T10:11:07.351Z,85.53
2022-08-28T10:12:07.290Z,86.63
2022-08-28T10:13:07.282Z,83.59
2022-08-28T10:14:07.250Z,82.59
2022-08-28T10:15:07.240Z,83.89
2022-08-28T10:16:07.281Z,85.49
2022-08-28T10:17:07.229Z,82.49
2022-08-28T10:18:07.188Z,80.79
2022-08-28T10:19:07.207Z,81.19
2022-08-28T10:20:07.169Z,81.56
2022-08-28T10:21:07.198Z,79.59
2022-08-28T10:22:07.139Z,82.15
2022-08-28T10:23:07.148Z,81.05
2022-08-28T10:24:07.148Z,80.49
2022-08-28T10:25:07.117Z,81.19
2022-08-28T10:26:07.097Z,80.09
2022-08-28T10:27:07.087Z,81.79
2022-08-28T10:28:07.069Z,82.49
2022-08-28T10:29:07.096Z,78.49
2022-08-28T10:30:12.381Z,79.49
2022-08-28T10:31:08.233Z,80.09
2022-08-28T10:32:07.062Z,80.99
2022-08-28T10:33:07.020Z,80.19
2022-08-28T10:34:07.100Z,78.69
2022-08-28T10:35:06.992Z,77.99
2022-08-28T10:36:07.072Z,79.09
2022-08-28T10:37:07.029Z,80.39
2022-08-28T10:38:07.276Z,78.49
2022-08-28T10:39:06.965Z,79.99
2022-08-28T10:40:06.952Z,80.89
2022-08-28T10:41:06.913Z,79.99
2022-08-28T10:42:06.988Z,79.49
2022-08-28T10:43:06.903Z,79.55
2022-08-28T10:44:06.873Z,80.45
2022-08-28T10:45:07.008Z,80.05
2022-08-28T10:46:06.993Z,78.55
2022-08-28T10:47:06.884Z,79.29
2022-08-28T10:48:06.885Z,78.79
2022-08-28T10:49:06.864Z,78.89
2022-08-28T10:50:06.812Z,78.39
2022-08-28T10:51:06.782Z,77.99
2022-08-28T10:52:06.753Z,78.79
2022-08-28T10:53:06.743Z,79.29
2022-08-28T10:54:06.762Z,77.99
2022-08-28T10:55:06.789Z,77.69
2022-08-28T10:56:06.711Z,77.13
2022-08-28T10:57:06.736Z,78.73
2022-08-28T10:58:06.840Z,78.53
2022-08-28T10:59:07.795Z,79.43
2022-08-28T11:00:06.762Z,81.23
2022-08-28T11:01:06.781Z,79.13
2022-08-28T11:02:06.730Z,79.43
2022-08-28T11:03:11.756Z,79.43
2022-08-28T11:05:13.616Z,78.73
2022-08-28T11:06:13.665Z,80.53
2022-08-28T11:07:13.674Z,80.69
2022-08-28T11:08:13.868Z,80.49
2022-08-28T11:09:13.566Z,81.69
2022-08-28T11:10:13.545Z,80.79
2022-08-28T11:11:13.533Z,80.19
2022-08-28T11:12:13.805Z,80.79
2022-08-28T11:13:13.603Z,80.59
2022-08-28T11:14:13.524Z,81.25
2022-08-28T11:15:13.472Z,82.75
2022-08-28T11:16:13.472Z,83.45
2022-08-28T11:17:13.844Z,83.75
2022-08-28T11:18:13.519Z,79.35
2022-08-28T11:19:13.676Z,80.26
2022-08-28T11:20:13.477Z,77.62
2022-08-28T11:21:13.422Z,76.15
2022-08-28T11:22:13.420Z,79.02
2022-08-28T11:23:13.568Z,76.76
2022-08-28T11:24:13.376Z,75.56
2022-08-28T11:25:13.410Z,75.26
2022-08-28T11:26:13.371Z,76.26
2022-08-28T11:27:13.341Z,74.55
2022-08-28T11:28:13.320Z,73.96
2022-08-28T11:29:13.311Z,74.85
2022-08-28T11:30:13.280Z,76.35
2022-08-28T11:31:19.127Z,77.75
2022-08-28T11:32:14.270Z,76.19
2022-08-28T11:33:13.398Z,77.45
2022-08-28T11:34:13.259Z,77.15
2022-08-28T11:35:13.216Z,76.95
2022-08-28T11:36:13.209Z,77.36
2022-08-28T11:37:13.207Z,77.36
2022-08-28T11:38:14.815Z,77.75
2022-08-28T11:39:13.176Z,79.16
2022-08-28T11:40:13.212Z,81.81
2022-08-28T11:41:13.138Z,82.01
2022-08-28T11:42:13.139Z,81.12
2022-08-28T11:43:13.201Z,81.98
2022-08-28T11:44:13.127Z,78.38
2022-08-28T11:45:13.089Z,77.88
2022-08-28T11:46:13.158Z,79.54
2022-08-28T11:47:13.066Z,81.43
2022-08-28T11:48:13.067Z,80.94
2022-08-28T11:49:13.057Z,80.70
2022-08-28T11:50:13.047Z,80.20
2022-08-28T11:51:13.011Z,80.20
2022-08-28T11:52:13.026Z,77.70
2022-08-28T11:53:13.141Z,78.37
2022-08-28T11:54:12.996Z,78.07
2022-08-28T11:55:12.983Z,80.56
2022-08-28T11:56:12.981Z,78.67
2022-08-28T11:57:12.977Z,77.33
2022-08-28T11:58:38.003Z,78.13
2022-08-28T11:59:37.991Z,77.93
2022-08-28T12:00:37.973Z,77.53
2022-08-28T12:01:38.002Z,78.63
2022-08-28T12:02:38.024Z,78.23
2022-08-28T12:03:37.969Z,76.27
2022-08-28T12:04:37.973Z,77.87
2022-08-28T12:05:37.902Z,76.37
2022-08-28T12:06:37.911Z,76.77
2022-08-28T12:07:37.911Z,76.27
2022-08-28T12:08:37.874Z,76.11
2022-08-28T12:09:37.873Z,75.81
2022-08-28T12:10:37.842Z,76.01
2022-08-28T12:11:37.861Z,75.81
2022-08-28T12:12:37.881Z,76.21
2022-08-28T12:13:37.822Z,75.81
2022-08-28T12:14:37.795Z,74.91
2022-08-28T12:15:37.840Z,71.52
2022-08-28T12:16:37.776Z,72.78
2022-08-28T12:17:37.767Z,72.08
2022-08-28T12:18:37.749Z,72.08
2022-08-28T12:19:49.996Z,71.29
2022-08-28T12:20:38.723Z,69.89
2022-08-28T12:21:37.723Z,70.03
2022-08-28T12:22:37.723Z,71.29
2022-08-28T12:23:37.715Z,69.79
2022-08-28T12:24:37.658Z,70.59
2022-08-28T12:25:37.670Z,69.49
2022-08-28T12:26:37.636Z,73.25
2022-08-28T12:27:37.638Z,70.16
2022-08-28T12:28:37.837Z,71.75
2022-08-28T12:29:37.611Z,73.85
2022-08-28T12:30:37.627Z,74.01
2022-08-28T12:31:37.582Z,72.81
2022-08-28T12:32:37.608Z,71.32
2022-08-28T12:33:37.615Z,71.62
2022-08-28T12:34:37.546Z,72.98
2022-08-28T12:35:37.815Z,74.17
2022-08-28T12:36:37.574Z,74.07
2022-08-28T12:37:51.334Z,73.24
2022-08-28T12:38:38.495Z,72.55
2022-08-28T12:39:37.506Z,71.05
2022-08-28T12:40:37.518Z,69.56
2022-08-28T12:41:37.465Z,71.22
2022-08-28T12:42:38.136Z,72.61
2022-08-28T12:43:41.291Z,71.78
2022-08-28T12:44:38.440Z,70.78
2022-08-28T12:45:37.467Z,71.28
2022-08-28T12:46:37.450Z,69.09
2022-08-28T12:47:37.400Z,67.11
2022-08-28T12:48:37.354Z,68.40
2022-08-28T12:49:37.355Z,67.00
2022-08-28T12:50:37.343Z,69.76
2022-08-28T12:51:37.363Z,71.25
2022-08-28T12:52:37.312Z,71.55
2022-08-28T12:53:37.314Z,71.25